createdAt,value
2023-03-27T00:00:13.182Z,99679.19
2023-03-27T00:03:01.673Z,99681.94
2023-03-27T00:05:31.309Z,99682.44
2023-03-27T00:08:01.526Z,99698.41
2023-03-27T00:10:29.674Z,99715.97
2023-03-27T00:12:57.983Z,99711.19
2023-03-27T00:15:26.053Z,99721.81
2023-03-27T00:17:55.157Z,99723.44
2023-03-27T00:20:24.093Z,99726.34
2023-03-27T00:22:55.592Z,99740.25
2023-03-27T00:25:24.897Z,99738.50
2023-03-27T00:27:53.990Z,99745.03
2023-03-27T00:30:21.965Z,99747.16
2023-03-27T00:32:50.347Z,99754.81
2023-03-27T00:35:18.480Z,99763.91
2023-03-27T00:37:47.125Z,99776.50
2023-03-27T00:40:17.654Z,99774.78
2023-03-27T00:42:47.094Z,99779.53
2023-03-27T00:45:18.281Z,99786.03
2023-03-27T00:47:48.143Z,99793.53
2023-03-27T00:50:19.744Z,99799.69
2023-03-27T00:52:51.496Z,99803.03
2023-03-27T00:55:22.341Z,99817.16
2023-03-27T00:57:53.293Z,99811.53
2023-03-27T01:00:21.938Z,99816.81
2023-03-27T01:02:51.307Z,99820.59
2023-03-27T01:05:20.760Z,99825.88
2023-03-27T01:08:00.532Z,99832.16
2023-03-27T01:10:37.121Z,99834.13
2023-03-27T01:13:11.805Z,99831.97
2023-03-27T01:15:45.810Z,99849.91
2023-03-27T01:18:24.405Z,99842.59
2023-03-27T01:21:24.716Z,99854.28
2023-03-27T01:24:39.515Z,99851.84
2023-03-27T01:27:11.572Z,99863.66
2023-03-27T01:29:48.420Z,99868.91
2023-03-27T01:32:36.996Z,99873.25
2023-03-27T01:35:32.611Z,99877.28
2023-03-27T01:38:19.238Z,99883.56
2023-03-27T01:40:51.710Z,99890.91
2023-03-27T01:43:24.353Z,99904.53
2023-03-27T01:45:56.209Z,99905.31
2023-03-27T01:48:27.424Z,99910.81
2023-03-27T01:50:58.655Z,99920.88
2023-03-27T01:53:29.902Z,99928.22
2023-03-27T01:56:02.127Z,99927.63
2023-03-27T01:58:33.115Z,99934.72
2023-03-27T02:01:02.946Z,99946.53
2023-03-27T02:03:34.779Z,99944.91
2023-03-27T02:06:06.521Z,99953.13
2023-03-27T02:08:41.228Z,99951.56
2023-03-27T02:11:17.982Z,99946.41
2023-03-27T02:13:49.766Z,99947.88
2023-03-27T02:16:21.503Z,99965.03
2023-03-27T02:18:54.294Z,99970.28
2023-03-27T02:21:23.527Z,99979.41
2023-03-27T02:23:52.933Z,99992.97
2023-03-27T02:26:22.712Z,99994.00
2023-03-27T02:29:00.276Z,100009.41
2023-03-27T02:31:37.260Z,100022.41
2023-03-27T02:34:38.208Z,100041.94
2023-03-27T02:37:12.039Z,100032.75
2023-03-27T02:40:10.002Z,100027.81
2023-03-27T02:42:46.477Z,100058.63
2023-03-27T02:45:18.545Z,100053.94
2023-03-27T02:47:48.975Z,100045.34
2023-03-27T02:50:20.359Z,100064.53
2023-03-27T02:52:52.220Z,100051.47
2023-03-27T02:55:23.960Z,100077.28
2023-03-27T02:57:59.453Z,100080.56
2023-03-27T03:00:41.896Z,100073.44
2023-03-27T03:03:34.898Z,100093.47
2023-03-27T03:06:11.022Z,100094.19
2023-03-27T03:08:39.574Z,100091.09
2023-03-27T03:11:11.978Z,100114.41
2023-03-27T03:13:42.321Z,100122.69
2023-03-27T03:16:11.348Z,100117.88
2023-03-27T03:18:41.293Z,100129.22
2023-03-27T03:21:09.501Z,100123.63
2023-03-27T03:23:39.112Z,100130.53
2023-03-27T03:26:08.370Z,100143.84
2023-03-27T03:29:00.868Z,100151.13
2023-03-27T03:31:42.968Z,100159.41
2023-03-27T03:34:11.825Z,100158.47
2023-03-27T03:36:41.893Z,100164.91
2023-03-27T03:39:11.310Z,100182.91
2023-03-27T03:41:39.467Z,100196.59
2023-03-27T03:44:09.938Z,100203.28
2023-03-27T03:46:39.081Z,100210.56
2023-03-27T03:49:07.902Z,100205.53
2023-03-27T03:51:36.542Z,100226.69
2023-03-27T03:54:06.639Z,100239.63
2023-03-27T03:56:34.884Z,100250.09
2023-03-27T03:59:03.184Z,100241.25
2023-03-27T04:01:34.458Z,100247.72
2023-03-27T04:04:05.725Z,100258.19
2023-03-27T04:06:58.123Z,100263.84
2023-03-27T04:09:30.637Z,100267.47
2023-03-27T04:12:10.099Z,100265.88
2023-03-27T04:15:11.098Z,100267.91
2023-03-27T04:18:00.971Z,100273.94
2023-03-27T04:20:29.627Z,100291.69
2023-03-27T04:23:02.489Z,100297.94
2023-03-27T04:25:32.137Z,100296.53
2023-03-27T04:28:02.149Z,100305.81
2023-03-27T04:30:36.863Z,100318.50
2023-03-27T04:33:24.744Z,100315.47
2023-03-27T04:36:14.644Z,100317.28
2023-03-27T04:39:05.680Z,100339.66
2023-03-27T04:41:34.112Z,100344.91
2023-03-27T04:44:02.393Z,100352.16
2023-03-27T04:46:32.870Z,100352.97
2023-03-27T04:49:09.208Z,100367.88
2023-03-27T04:51:47.906Z,100379.38
2023-03-27T04:54:16.171Z,100388.00
2023-03-27T04:56:46.637Z,100389.22
2023-03-27T04:59:15.573Z,100388.00
2023-03-27T05:01:44.646Z,100393.25
2023-03-27T05:04:34.383Z,100398.50
2023-03-27T05:07:12.105Z,100412.41
2023-03-27T05:09:40.271Z,100414.19
2023-03-27T05:12:10.640Z,100426.31
2023-03-27T05:14:48.476Z,100431.56
2023-03-27T05:17:32.864Z,100436.78
2023-03-27T05:20:04.225Z,100448.88
2023-03-27T05:22:34.615Z,100458.53
2023-03-27T05:25:12.017Z,100445.59
2023-03-27T05:27:45.535Z,100469.41
2023-03-27T05:30:15.907Z,100477.06
2023-03-27T05:32:48.827Z,100485.53
2023-03-27T05:35:28.269Z,100492.41
2023-03-27T05:37:59.020Z,100498.06
2023-03-27T05:41:00.589Z,100502.72
2023-03-27T05:43:29.292Z,100496.44
2023-03-27T05:45:57.337Z,100523.47
2023-03-27T05:48:26.960Z,100525.47
2023-03-27T05:51:01.897Z,100534.13
2023-03-27T05:53:30.253Z,100539.13
2023-03-27T05:56:21.269Z,100549.53
2023-03-27T05:58:59.264Z,100552.72
2023-03-27T06:01:28.850Z,100559.59
2023-03-27T06:04:00.254Z,100559.59
2023-03-27T06:06:34.565Z,100560.44
2023-03-27T06:09:05.239Z,100577.41
2023-03-27T06:11:35.250Z,100585.50
2023-03-27T06:14:04.080Z,100581.91
2023-03-27T06:16:58.049Z,100588.75
2023-03-27T06:19:44.588Z,100593.25
2023-03-27T06:22:14.170Z,100609.00
2023-03-27T06:24:43.118Z,100615.47
2023-03-27T06:27:14.152Z,100625.38
2023-03-27T06:29:42.713Z,100633.28
2023-03-27T06:32:11.754Z,100642.50
2023-03-27T06:34:45.334Z,100640.91
2023-03-27T06:37:37.021Z,100647.75
2023-03-27T06:40:10.269Z,100660.50
2023-03-27T06:42:40.754Z,100654.44
2023-03-27T06:45:38.608Z,100657.88
2023-03-27T06:48:26.653Z,100665.78
2023-03-27T06:50:59.010Z,100672.06
2023-03-27T06:53:31.178Z,100666.81
2023-03-27T06:56:02.992Z,100682.94
2023-03-27T06:58:47.030Z,100686.16
2023-03-27T07:01:16.006Z,100691.22
2023-03-27T07:04:06.615Z,100684.97
2023-03-27T07:07:04.291Z,100698.31
2023-03-27T07:09:40.076Z,100712.03
2023-03-27T07:12:09.934Z,100710.03
2023-03-27T07:14:39.590Z,100712.81
2023-03-27T07:17:09.514Z,100733.84
2023-03-27T07:19:55.875Z,100728.19
2023-03-27T07:22:28.720Z,100729.81
2023-03-27T07:24:59.936Z,100733.84
2023-03-27T07:27:38.699Z,100740.94
2023-03-27T07:30:08.657Z,100745.97
2023-03-27T07:32:38.101Z,100758.28
2023-03-27T07:35:08.908Z,100760.91
2023-03-27T07:37:38.389Z,100764.56
2023-03-27T07:40:37.293Z,100771.81
2023-03-27T07:43:41.017Z,100777.50
2023-03-27T07:46:09.843Z,100788.41
2023-03-27T07:48:38.434Z,100786.00
2023-03-27T07:51:13.949Z,100787.59
2023-03-27T07:53:43.591Z,100792.03
2023-03-27T07:56:24.552Z,100797.06
2023-03-27T07:59:11.594Z,100801.34
2023-03-27T08:01:41.441Z,100792.22
2023-03-27T08:04:10.255Z,100800.94
2023-03-27T08:06:41.138Z,100802.16
2023-03-27T08:09:14.185Z,100803.34
2023-03-27T08:11:44.222Z,100811.44
2023-03-27T08:14:12.977Z,100810.63
2023-03-27T08:16:41.172Z,100821.53
2023-03-27T08:19:11.383Z,100822.78
2023-03-27T08:21:44.238Z,100823.56
2023-03-27T08:24:12.607Z,100818.31
2023-03-27T08:27:07.138Z,100833.69
2023-03-27T08:29:40.076Z,100831.22
2023-03-27T08:32:10.517Z,100831.19
2023-03-27T08:34:42.356Z,100843.16
2023-03-27T08:37:10.775Z,100847.38
2023-03-27T08:39:49.576Z,100849.81
2023-03-27T08:42:23.060Z,100849.78
2023-03-27T08:44:54.866Z,100849.78
2023-03-27T08:47:39.107Z,100849.38
2023-03-27T08:50:22.528Z,100858.47
2023-03-27T08:52:54.071Z,100856.22
2023-03-27T08:55:35.842Z,100863.50
2023-03-27T08:58:23.068Z,100863.50
2023-03-27T09:01:02.240Z,100874.19
2023-03-27T09:03:35.186Z,100880.06
2023-03-27T09:06:08.289Z,100859.41
2023-03-27T09:08:44.754Z,100880.47
2023-03-27T09:11:23.131Z,100883.31
2023-03-27T09:13:58.915Z,100877.25
2023-03-27T09:16:35.595Z,100878.78
2023-03-27T09:19:09.486Z,100880.78
2023-03-27T09:21:42.086Z,100858.88
2023-03-27T09:24:18.423Z,100871.66
2023-03-27T09:27:17.574Z,100868.78
2023-03-27T09:30:05.440Z,100870.72
2023-03-27T09:32:47.616Z,100879.22
2023-03-27T09:35:16.477Z,100880.50
2023-03-27T09:37:44.999Z,100878.88
2023-03-27T09:40:20.893Z,100883.28
2023-03-27T09:42:49.542Z,100878.38
2023-03-27T09:45:19.086Z,100878.53
2023-03-27T09:48:05.698Z,100877.09
2023-03-27T09:50:44.647Z,100885.50
2023-03-27T09:53:27.956Z,100877.00
2023-03-27T09:56:06.210Z,100888.53
2023-03-27T09:58:40.733Z,100896.25
2023-03-27T10:01:16.655Z,100890.53
2023-03-27T10:03:52.465Z,100897.84
2023-03-27T10:06:32.178Z,100905.94
2023-03-27T10:09:14.690Z,100894.31
2023-03-27T10:11:43.440Z,100898.88
2023-03-27T10:14:26.081Z,100904.53
2023-03-27T10:16:56.530Z,100899.59
2023-03-27T10:19:28.420Z,100901.63
2023-03-27T10:21:57.425Z,100893.50
2023-03-27T10:24:34.108Z,100905.69
2023-03-27T10:27:21.877Z,100895.13
2023-03-27T10:30:30.380Z,100897.56
2023-03-27T10:33:14.087Z,100908.72
2023-03-27T10:35:53.832Z,100900.47
2023-03-27T10:38:28.811Z,100898.03
2023-03-27T10:41:29.084Z,100898.66
2023-03-27T10:44:08.579Z,100895.41
2023-03-27T10:46:39.984Z,100893.50
2023-03-27T10:49:24.336Z,100899.97
2023-03-27T10:51:53.689Z,100890.75
2023-03-27T10:54:35.508Z,100889.78
2023-03-27T10:57:07.261Z,100906.78
2023-03-27T10:59:42.348Z,100894.81
2023-03-27T11:02:28.463Z,100897.78
2023-03-27T11:05:02.199Z,100898.69
2023-03-27T11:07:34.129Z,100901.25
2023-03-27T11:10:11.884Z,100903.53
2023-03-27T11:12:42.058Z,100900.47
2023-03-27T11:15:15.392Z,100911.44
2023-03-27T11:17:47.586Z,100915.72
2023-03-27T11:20:35.388Z,100932.03
2023-03-27T11:23:29.936Z,100934.91
2023-03-27T11:26:34.748Z,100946.78
2023-03-27T11:29:09.381Z,100974.72
2023-03-27T11:31:48.249Z,100974.78
2023-03-27T11:34:33.420Z,100977.47
2023-03-27T11:37:25.629Z,100980.75
2023-03-27T11:39:58.539Z,100983.50
2023-03-27T11:42:29.136Z,100978.16
2023-03-27T11:44:58.738Z,100983.31
2023-03-27T11:47:58.479Z,100977.00
2023-03-27T11:50:37.922Z,100966.97
2023-03-27T11:53:35.859Z,100979.25
2023-03-27T11:56:33.492Z,100961.78
2023-03-27T11:59:30.977Z,100973.75
2023-03-27T12:02:15.871Z,100969.84
2023-03-27T12:04:48.427Z,100965.09
2023-03-27T12:07:37.113Z,100954.91
2023-03-27T12:10:27.441Z,100957.59
2023-03-27T12:13:55.024Z,100952.56
2023-03-27T12:16:48.984Z,100949.38
2023-03-27T12:19:36.269Z,100943.06
2023-03-27T12:22:34.950Z,100940.97
2023-03-27T12:25:21.860Z,100944.78
2023-03-27T12:28:40.142Z,100956.63
2023-03-27T12:31:29.461Z,100951.44
2023-03-27T12:34:02.079Z,100947.78
2023-03-27T12:36:34.730Z,100957.53
2023-03-27T12:39:04.965Z,100950.91
2023-03-27T12:41:39.124Z,100955.41
2023-03-27T12:44:19.500Z,100940.66
2023-03-27T12:47:08.473Z,100949.31
2023-03-27T12:49:47.717Z,100942.88
2023-03-27T12:52:28.645Z,100956.13
2023-03-27T12:55:09.236Z,100960.00
2023-03-27T12:58:03.539Z,100975.03
2023-03-27T13:01:00.210Z,100982.75
2023-03-27T13:03:51.183Z,100976.25
2023-03-27T13:06:30.112Z,100975.16
2023-03-27T13:09:18.971Z,100983.22
2023-03-27T13:12:19.837Z,100972.56
2023-03-27T13:15:15.850Z,100976.91
2023-03-27T13:17:54.389Z,100989.75
2023-03-27T13:20:30.427Z,100971.63
2023-03-27T13:23:22.174Z,100973.56
2023-03-27T13:26:14.030Z,100962.63
2023-03-27T13:28:48.384Z,100975.75
2023-03-27T13:31:49.563Z,100955.06
2023-03-27T13:34:37.164Z,100964.22
2023-03-27T13:37:48.131Z,100958.09
2023-03-27T13:40:27.177Z,100958.06
2023-03-27T13:43:15.534Z,100963.38
2023-03-27T13:45:47.075Z,100968.16
2023-03-27T13:49:06.177Z,100964.97
2023-03-27T13:51:52.594Z,100969.53
2023-03-27T13:54:48.810Z,100984.28
2023-03-27T13:57:42.522Z,100997.75
2023-03-27T14:00:37.627Z,101003.91
2023-03-27T14:03:45.230Z,100999.13
2023-03-27T14:07:00.730Z,101010.03
2023-03-27T14:09:41.868Z,101016.59
2023-03-27T14:12:28.106Z,100999.59
2023-03-27T14:15:37.666Z,101011.81
2023-03-27T14:18:44.884Z,101010.56
2023-03-27T14:21:24.506Z,101019.03
2023-03-27T14:24:05.378Z,101019.00
2023-03-27T14:26:42.553Z,101018.16
2023-03-27T14:29:15.349Z,101022.44
2023-03-27T14:31:47.695Z,101024.22
2023-03-27T14:34:24.856Z,101014.41
2023-03-27T14:37:28.811Z,100998.31
2023-03-27T14:40:00.990Z,101004.03
2023-03-27T14:42:49.080Z,101004.88
2023-03-27T14:45:22.064Z,101001.63
2023-03-27T14:47:53.999Z,101004.97
2023-03-27T14:50:23.584Z,100997.22
2023-03-27T14:52:53.618Z,101006.47
2023-03-27T14:55:30.766Z,100994.06
2023-03-27T14:58:26.363Z,100995.28
2023-03-27T15:01:00.514Z,100993.31
2023-03-27T15:03:35.304Z,100994.06
2023-03-27T15:06:06.293Z,100978.97
2023-03-27T15:08:46.597Z,100976.75
2023-03-27T15:11:38.218Z,100982.97
2023-03-27T15:14:18.281Z,100985.09
2023-03-27T15:16:49.813Z,100986.28
2023-03-27T15:19:21.718Z,100988.44
2023-03-27T15:21:56.561Z,100983.94
2023-03-27T15:24:32.779Z,100988.38
2023-03-27T15:27:01.716Z,100990.84
2023-03-27T15:29:40.682Z,100987.19
2023-03-27T15:32:11.912Z,100981.81
2023-03-27T15:34:46.002Z,100981.25
2023-03-27T15:37:18.747Z,100977.56
2023-03-27T15:40:02.262Z,100986.31
2023-03-27T15:42:45.739Z,100986.00
2023-03-27T15:45:17.207Z,100988.28
2023-03-27T15:47:46.441Z,100981.28
2023-03-27T15:50:19.079Z,100975.13
2023-03-27T15:52:51.536Z,100974.19
2023-03-27T15:55:39.578Z,100973.06
2023-03-27T15:58:16.280Z,100979.41
2023-03-27T16:00:50.734Z,100979.34
2023-03-27T16:03:22.619Z,100984.66
2023-03-27T16:05:52.342Z,100983.56
2023-03-27T16:08:32.474Z,100986.53
2023-03-27T16:11:01.461Z,100993.38
2023-03-27T16:13:35.317Z,101000.19
2023-03-27T16:16:06.495Z,101001.09
2023-03-27T16:18:36.024Z,101004.41
2023-03-27T16:21:09.157Z,101006.94
2023-03-27T16:23:38.286Z,101000.63
2023-03-27T16:26:07.926Z,101010.22
2023-03-27T16:28:36.700Z,101004.78
2023-03-27T16:31:13.934Z,101002.41
2023-03-27T16:33:45.124Z,101008.91
2023-03-27T16:36:13.857Z,101013.66
2023-03-27T16:38:43.661Z,101002.38
2023-03-27T16:41:14.186Z,101011.53
2023-03-27T16:43:42.833Z,101029.69
2023-03-27T16:46:16.848Z,101032.69
2023-03-27T16:48:45.627Z,101045.53
2023-03-27T16:51:13.642Z,101050.94
2023-03-27T16:53:41.977Z,101043.38
2023-03-27T16:56:11.380Z,101060.75
2023-03-27T16:58:39.976Z,101066.31
2023-03-27T17:01:09.039Z,101073.72
2023-03-27T17:03:38.816Z,101075.25
2023-03-27T17:06:09.132Z,101091.47
2023-03-27T17:08:38.066Z,101093.03
2023-03-27T17:11:08.703Z,101096.84
2023-03-27T17:13:37.378Z,101100.81
2023-03-27T17:16:06.482Z,101105.03
2023-03-27T17:18:36.380Z,101112.63
2023-03-27T17:21:06.238Z,101118.69
2023-03-27T17:23:34.646Z,101129.22
2023-03-27T17:26:04.047Z,101126.28
2023-03-27T17:28:32.558Z,101128.88
2023-03-27T17:31:05.327Z,101134.97
2023-03-27T17:33:34.271Z,101143.44
2023-03-27T17:36:10.032Z,101148.59
2023-03-27T17:38:39.377Z,101147.72
2023-03-27T17:41:08.319Z,101151.66
2023-03-27T17:43:36.767Z,101165.38
2023-03-27T17:46:05.318Z,101167.03
2023-03-27T17:48:33.938Z,101161.03
2023-03-27T17:51:08.863Z,101175.50
2023-03-27T17:53:39.758Z,101174.19
2023-03-27T17:56:09.071Z,101184.84
2023-03-27T17:58:37.936Z,101200.34
2023-03-27T18:01:15.692Z,101236.53
2023-03-27T18:03:44.310Z,101224.91
2023-03-27T18:06:12.696Z,101237.97
2023-03-27T18:08:42.414Z,101235.56
2023-03-27T18:11:11.528Z,101233.16
2023-03-27T18:13:40.040Z,101239.69
2023-03-27T18:16:10.466Z,101236.06
2023-03-27T18:18:39.872Z,101236.06
2023-03-27T18:21:09.353Z,101229.56
2023-03-27T18:23:46.105Z,101238.09
2023-03-27T18:26:16.828Z,101240.72
2023-03-27T18:28:45.345Z,101241.72
2023-03-27T18:31:13.768Z,101245.19
2023-03-27T18:33:42.044Z,101248.84
2023-03-27T18:36:11.912Z,101236.09
2023-03-27T18:38:41.693Z,101250.06
2023-03-27T18:41:10.435Z,101237.28
2023-03-27T18:43:40.062Z,101254.34
2023-03-27T18:46:08.688Z,101267.72
2023-03-27T18:48:37.319Z,101266.50
2023-03-27T18:51:06.666Z,101272.16
2023-03-27T18:53:35.141Z,101270.72
2023-03-27T18:56:03.483Z,101283.09
2023-03-27T18:58:31.898Z,101270.53
2023-03-27T19:01:01.793Z,101271.28
2023-03-27T19:03:34.849Z,101282.03
2023-03-27T19:06:05.615Z,101284.66
2023-03-27T19:08:34.360Z,101282.63
2023-03-27T19:11:02.655Z,101292.31
2023-03-27T19:14:06.110Z,101287.84
2023-03-27T19:16:39.666Z,101290.28
2023-03-27T19:19:36.834Z,101297.53
2023-03-27T19:22:14.326Z,101298.34
2023-03-27T19:24:46.744Z,101298.75
2023-03-27T19:27:23.942Z,101298.28
2023-03-27T19:29:53.133Z,101303.94
2023-03-27T19:32:24.058Z,101299.03
2023-03-27T19:34:52.297Z,101302.63
2023-03-27T19:37:20.584Z,101312.28
2023-03-27T19:39:48.713Z,101310.41
2023-03-27T19:42:17.296Z,101316.94
2023-03-27T19:44:45.301Z,101315.06
2023-03-27T19:47:13.891Z,101319.56
2023-03-27T19:49:43.513Z,101323.19
2023-03-27T19:52:19.692Z,101323.91
2023-03-27T19:54:47.907Z,101312.56
2023-03-27T19:57:16.339Z,101320.22
2023-03-27T19:59:44.415Z,101328.78
2023-03-27T20:02:12.980Z,101330.63
2023-03-27T20:04:41.204Z,101331.19
2023-03-27T20:07:11.061Z,101338.03
2023-03-27T20:09:39.565Z,101336.81
2023-03-27T20:12:08.092Z,101339.66
2023-03-27T20:14:36.209Z,101335.13
2023-03-27T20:17:07.984Z,101338.41
2023-03-27T20:19:46.116Z,101338.31
2023-03-27T20:22:18.385Z,101345.69
2023-03-27T20:24:46.485Z,101345.13
2023-03-27T20:27:14.831Z,101343.09
2023-03-27T20:29:42.908Z,101341.13
2023-03-27T20:32:11.202Z,101336.16
2023-03-27T20:34:39.851Z,101344.75
2023-03-27T20:37:12.022Z,101340.66
2023-03-27T20:39:57.092Z,101352.72
2023-03-27T20:42:26.500Z,101349.72
2023-03-27T20:44:58.032Z,101358.53
2023-03-27T20:47:26.512Z,101348.34
2023-03-27T20:49:58.715Z,101356.84
2023-03-27T20:52:27.051Z,101357.19
2023-03-27T20:54:56.904Z,101354.59
2023-03-27T20:57:25.274Z,101355.03
2023-03-27T20:59:54.218Z,101365.00
2023-03-27T21:02:22.821Z,101369.88
2023-03-27T21:04:51.145Z,101360.28
2023-03-27T21:07:19.588Z,101358.28
2023-03-27T21:09:47.886Z,101359.91
2023-03-27T21:12:17.599Z,101369.19
2023-03-27T21:14:45.650Z,101368.31
2023-03-27T21:17:14.064Z,101367.53
2023-03-27T21:19:42.195Z,101367.59
2023-03-27T21:22:10.615Z,101378.00
2023-03-27T21:24:40.683Z,101373.88
2023-03-27T21:27:08.976Z,101376.13
2023-03-27T21:29:38.579Z,101376.88
2023-03-27T21:32:07.751Z,101373.44
2023-03-27T21:34:36.101Z,101377.00
2023-03-27T21:37:04.480Z,101381.50
2023-03-27T21:39:32.669Z,101390.00
2023-03-27T21:42:01.025Z,101386.44
2023-03-27T21:44:29.098Z,101391.38
2023-03-27T21:46:58.737Z,101392.91
2023-03-27T21:49:26.947Z,101396.50
2023-03-27T21:51:55.266Z,101396.38
2023-03-27T21:54:23.418Z,101397.88
2023-03-27T21:56:51.691Z,101399.00
2023-03-27T21:59:19.863Z,101402.66
2023-03-27T22:01:48.324Z,101401.88
2023-03-27T22:04:18.883Z,101400.03
2023-03-27T22:06:48.905Z,101401.09
2023-03-27T22:09:17.928Z,101402.13
2023-03-27T22:11:46.701Z,101414.53
2023-03-27T22:14:14.857Z,101413.47
2023-03-27T22:16:43.365Z,101414.19
2023-03-27T22:19:11.860Z,101413.28
2023-03-27T22:21:41.564Z,101411.88
2023-03-27T22:24:09.730Z,101422.00
2023-03-27T22:26:39.726Z,101430.09
2023-03-27T22:29:09.047Z,101427.50
2023-03-27T22:31:37.829Z,101431.66
2023-03-27T22:34:06.650Z,101436.84
2023-03-27T22:36:35.225Z,101427.50
2023-03-27T22:39:05.486Z,101427.56
2023-03-27T22:41:33.780Z,101433.59
2023-03-27T22:44:02.206Z,101443.38
2023-03-27T22:46:30.528Z,101447.53
2023-03-27T22:48:59.562Z,101450.91
2023-03-27T22:51:29.344Z,101454.09
2023-03-27T22:53:57.503Z,101458.59
2023-03-27T22:56:27.185Z,101462.13
2023-03-27T22:58:55.533Z,101468.44
2023-03-27T23:01:23.819Z,101476.66
2023-03-27T23:03:52.019Z,101471.91
2023-03-27T23:06:21.902Z,101472.69
2023-03-27T23:08:50.792Z,101478.31
2023-03-27T23:11:19.618Z,101476.31
2023-03-27T23:13:49.110Z,101482.75
2023-03-27T23:16:17.382Z,101491.69
2023-03-27T23:18:45.478Z,101493.78
2023-03-27T23:21:16.558Z,101494.13
2023-03-27T23:23:45.328Z,101503.72
2023-03-27T23:26:13.686Z,101506.41
2023-03-27T23:28:42.719Z,101501.94
2023-03-27T23:31:13.814Z,101502.59
2023-03-27T23:33:43.624Z,101501.78
2023-03-27T23:36:13.680Z,101492.06
2023-03-27T23:38:42.396Z,101501.16
2023-03-27T23:41:11.914Z,101501.47
2023-03-27T23:43:39.878Z,101506.16
2023-03-27T23:46:10.641Z,101510.75
2023-03-27T23:48:41.760Z,101513.25
2023-03-27T23:51:10.995Z,101502.31
2023-03-27T23:53:39.048Z,101507.38
2023-03-27T23:56:08.090Z,101513.03
2023-03-27T23:58:37.085Z,101512.66
